Aktualne dane pomiarowe

Uwaga, wersja testowa! Automatyczne pobieranie danych za pomocą narzędzi lub skryptów to umożliwiających jest zabronione.

Dane meteo z obszaru Polski uzyskane na podstawie depesz SYNOP pobieranych co godzinę z NWS. Najedź myszką na symbol przedstawiony w tabeli, aby uzyskać informacje co do jego znaczenia. Prosimy pamiętać, że to testowa wersja strony, która jeszcze nie jest ukończona. Stworzono również jest krótki FAQ dotyczący korzystania z tej podstrony Anomalie temperatury w chwili obecnej odniesione są do okresu referencyjnego 1951-2016. Okres ten będzie później zmieniony na 1981-2010. Kliknij ikonę aby pobrać plik CSV. Kliknij ikonę aby wygenerować mapę synoptyczną dla danego terminu.

Wybierz Datę:    

        

Kętrzyn (12185)

Dane terminowe dla wybranej stacji. Kliknij datę, aby otrzymać dane z tego terminu dla wszystkich stacji.

TemperaturaZachmurzenieWiatrCiśnienieOpadyPogoda
 Data t td wb tx tn tg rh  Nt Nl Cl Cm Ch ws wd g1 g2 wx mslp ppp ch 24h 12h t ww ww w1 w2  
2019-07-12 23:00:00 11.9 11.4 11.5--- 977.0--1wx--11010.5 997.2 0.1---wx-----
2019-07-12 22:00:00 12.0 11.1 11.3--- 9410.0--0----1010.5 997.2 0.3---------
2019-07-12 21:00:00 13.6 11.6 12.2--- 8827.0--3wx--31010.4 997.2 0.7---------
2019-07-12 20:00:00 15.7 12.1 13.3--- 7945.0--3wx--31010.2 997.1 0.8---------
2019-07-12 19:00:00 17.7 10.3 13.2--- 6245.0--2wx--21009.9 996.9 0.5---------
2019-07-12 18:00:00 19.5 9.7 13.7 22.2 15.7- 5330.0wx-wx3wx-931009.4 996.5 0.0- 0.012------
2019-07-12 17:00:00 20.9 9.8 14.3--- 4935.0wxwxwxwx4wx--41009.2 996.3 -0.4---------
2019-07-12 16:00:00 20.9 8.5 13.8--- 4530.0wxwxwxwx3wx8831009.3 996.4 -0.5---------
2019-07-12 15:00:00 21.2 9.7 14.4--- 4840.0wxwxwxwxwx3wx8931009.4 996.5 -0.6---------
2019-07-12 14:00:00 21.3 9.2 14.3--- 4640.0wxwxwxwxwx4wx9941009.5 996.7 -0.6---------
2019-07-12 13:00:00 21.0 8.9 14.0--- 4630.0wxwxwxwxwx3wx-931009.8 996.9 -0.3---------
2019-07-12 12:00:00 20.6 10.4 14.5--- 5235.0wxwxwxwxwx3wx-931010.0 997.1 -0.1- 0.06------
2019-07-12 11:00:00 19.7 10.1 14.0--- 5430.0wxwxwxwx3wx-831010.2 997.3 0.0---------
2019-07-12 10:00:00 20.0 11.0 14.5--- 5627.0wxwxwxwxwx3wx--31010.1 997.2 0.0---------
2019-07-12 09:00:00 19.0 10.8 14.0--- 5930.0wxwxwxwxwx4wx---1010.2 997.2 0.2---------
2019-07-12 08:00:00 17.1 11.1 13.3--- 6827.0wxwxwxwx3wx--31010.3 997.3 0.4---------
2019-07-12 07:00:00 16.1 10.6 12.6--- 7030.0wxwxwxwx4wx--41010.3 997.2 0.3---------
2019-07-12 06:00:00 15.9 10.9 12.7 16.9 10.8 9 7235.0wxwxwxwx4wx--41010.1 997.0 0.3--12wx---- 4.6
2019-07-12 05:00:00 15.0 11.9 12.9--- 8230.0--3wx---1010.0 996.9 0.3---------
2019-07-12 04:00:00 14.0 12.9 13.2--- 9321.0--2wx--21010.1 996.9 0.2---------
2019-07-12 03:00:00 13.8 12.7 13.0--- 9326.0--2wx--21009.9 996.7 0.1---------
2019-07-12 02:00:00 13.7 12.1 12.6--- 9035.0--2wx--21009.8 996.6 -0.3---------
2019-07-12 01:00:00 13.1 11.5 12.0--- 9035.0--2wx--21009.9 996.7 -0.6---------
2019-07-12 00:00:00 12.8 11.2 11.7--- 9035.0--1wx--11009.8 996.6 -0.7--6------
2019-07-11 23:00:00 12.1 10.8 11.2--- 9235.0--2wx--21010.2 996.9 -0.5---wx-----
2019-07-11 22:00:00 11.9 9.8 10.5--- 8750.0--2wx--21010.6 997.3 0.0---------
2019-07-11 21:00:00 11.1 8.8 9.6--- 8650.0--2wx--21010.6 997.3 0.2---------
2019-07-11 20:00:00 13.0 8.5 10.2--- 7423.0--1wx--11010.6 997.4 0.4---------
2019-07-11 19:00:00 15.3 8.1 11.0--- 6250.0--3wx--31010.4 997.3 0.3---------
2019-07-11 18:00:00 16.9 8.6 12.0 20.8 13.4- 5845.0wxwxwxwx4wx-1041010.1 997.1 0.3- 0.012------
2019-07-11 17:00:00 18.4 10.0 13.3--- 5835.0wxwxwxwx4wx9941010.0 997.0 0.2---------
2019-07-11 16:00:00 19.5 9.4 13.5--- 5230.0wxwxwxwx4wx-1041009.9 997.0 0.1---------
2019-07-11 15:00:00 20.2 10.9 14.6--- 5535.0wxwxwxwx5wx-951009.7 996.8 -0.2---------
2019-07-11 14:00:00 19.5 9.1 13.4--- 5140.0wxwxwxwx4wx-841009.7 996.8 -0.5---------
2019-07-11 13:00:00 19.4 8.7 13.2--- 5035.0wxwxwxwx4wx--41009.8 996.9 -0.7---------
2019-07-11 12:00:00 19.7 9.0 13.5--- 5040.0wxwxwxwx4wx-1041009.9 997.0 -0.6- 0.06------
2019-07-11 11:00:00 18.5 9.6 13.2--- 5630.0wxwxwxwx4wx--41010.0 997.3 -0.4---------
2019-07-11 10:00:00 16.9 10.0 12.7--- 6440.0wxwxwxwx4wx--41010.4 997.6 0.2---------
2019-07-11 09:00:00 17.4 11.0 13.4--- 6630.0wxwxwxwx4wx--41010.4 997.6 0.5---------
2019-07-11 08:00:00 15.1 11.5 12.7--- 7940.0wxwxwxwx4wx--41010.6 997.7 0.7---------
2019-07-11 07:00:00 14.4 11.9 12.7--- 8530.0wxwxwx4wx---1010.3 997.4 0.6---------
2019-07-11 06:00:00 13.4 12.1 12.5 13.6 11.8 12 9226.0wxwxwx3wx--31010.1 997.1 0.4 3.4 1.012wx---- 0.3
2019-07-11 05:00:00 12.3 11.5 11.7--- 9515.0--2wx--21010.0 997.0 0.4---------
2019-07-11 04:00:00 12.0 11.5 11.6--- 9712.0--3wx--31009.8 996.8 0.1---------
2019-07-11 03:00:00 11.8 11.3 11.4--- 9713.0--3wx--31009.7 996.7 0.0---------
2019-07-11 02:00:00 11.9 11.4 11.5--- 9711.0--2wx--21009.6 996.6 -0.2---wx-----
2019-07-11 01:00:00 11.9 11.4 11.5--- 9711.0--3wx--31009.7 996.7 -0.4---wx-----
2019-07-11 00:00:00 12.0 11.2 11.4--- 9511.0--3wx--31009.7 996.7 -0.3- 0.26wx-----
1.1 ms

 

Print Friendly, PDF & Email